sensor_id;sensor_type;location;lat;lon;timestamp;P1;durP1;ratioP1;P2;durP2;ratioP2
9304;SDS011;4690;52.422;13.486;2022-11-20T00:04:04;15.70;;;13.60;;
9304;SDS011;4690;52.422;13.486;2022-11-20T00:06:30;15.80;;;13.57;;
9304;SDS011;4690;52.422;13.486;2022-11-20T00:12:38;15.77;;;13.93;;
9304;SDS011;4690;52.422;13.486;2022-11-20T00:15:06;15.50;;;13.73;;
9304;SDS011;4690;52.422;13.486;2022-11-20T00:17:33;16.73;;;14.10;;
9304;SDS011;4690;52.422;13.486;2022-11-20T00:19:59;15.83;;;13.90;;
9304;SDS011;4690;52.422;13.486;2022-11-20T00:22:24;15.07;;;13.47;;
9304;SDS011;4690;52.422;13.486;2022-11-20T00:24:50;15.50;;;13.90;;
9304;SDS011;4690;52.422;13.486;2022-11-20T00:27:16;15.47;;;13.83;;
9304;SDS011;4690;52.422;13.486;2022-11-20T00:29:41;15.83;;;14.13;;
9304;SDS011;4690;52.422;13.486;2022-11-20T00:32:07;15.73;;;13.73;;
9304;SDS011;4690;52.422;13.486;2022-11-20T00:34:33;16.70;;;13.90;;
9304;SDS011;4690;52.422;13.486;2022-11-20T00:36:59;14.43;;;12.93;;
9304;SDS011;4690;52.422;13.486;2022-11-20T00:39:24;15.00;;;13.40;;
9304;SDS011;4690;52.422;13.486;2022-11-20T00:41:50;16.70;;;14.40;;
9304;SDS011;4690;52.422;13.486;2022-11-20T00:44:16;15.17;;;13.60;;
9304;SDS011;4690;52.422;13.486;2022-11-20T00:46:41;15.97;;;14.20;;
9304;SDS011;4690;52.422;13.486;2022-11-20T00:49:07;16.07;;;14.37;;
9304;SDS011;4690;52.422;13.486;2022-11-20T00:51:33;14.97;;;13.40;;
9304;SDS011;4690;52.422;13.486;2022-11-20T00:53:58;15.50;;;13.90;;
9304;SDS011;4690;52.422;13.486;2022-11-20T00:56:25;15.27;;;13.60;;
9304;SDS011;4690;52.422;13.486;2022-11-20T00:58:51;17.90;;;14.60;;
9304;SDS011;4690;52.422;13.486;2022-11-20T01:01:20;17.10;;;14.47;;
9304;SDS011;4690;52.422;13.486;2022-11-20T01:03:49;15.97;;;14.27;;
9304;SDS011;4690;52.422;13.486;2022-11-20T01:06:21;16.10;;;14.40;;
9304;SDS011;4690;52.422;13.486;2022-11-20T01:08:50;14.70;;;13.23;;
9304;SDS011;4690;52.422;13.486;2022-11-20T01:11:29;15.03;;;13.43;;
9304;SDS011;4690;52.422;13.486;2022-11-20T01:13:59;14.93;;;13.43;;
9304;SDS011;4690;52.422;13.486;2022-11-20T01:16:29;15.47;;;13.87;;
9304;SDS011;4690;52.422;13.486;2022-11-20T01:19:03;16.40;;;14.40;;
9304;SDS011;4690;52.422;13.486;2022-11-20T01:21:35;16.13;;;14.43;;
9304;SDS011;4690;52.422;13.486;2022-11-20T01:24:04;15.43;;;13.57;;
9304;SDS011;4690;52.422;13.486;2022-11-20T01:26:34;17.77;;;14.80;;
9304;SDS011;4690;52.422;13.486;2022-11-20T01:29:02;17.37;;;15.07;;
9304;SDS011;4690;52.422;13.486;2022-11-20T01:34:09;17.97;;;15.57;;
9304;SDS011;4690;52.422;13.486;2022-11-20T01:36:38;17.00;;;14.87;;
9304;SDS011;4690;52.422;13.486;2022-11-20T01:39:06;17.87;;;14.90;;
9304;SDS011;4690;52.422;13.486;2022-11-20T01:41:37;16.10;;;14.37;;
9304;SDS011;4690;52.422;13.486;2022-11-20T01:44:42;16.47;;;14.67;;
9304;SDS011;4690;52.422;13.486;2022-11-20T01:50:13;16.23;;;13.80;;
9304;SDS011;4690;52.422;13.486;2022-11-20T01:53:02;18.03;;;14.00;;
9304;SDS011;4690;52.422;13.486;2022-11-20T01:55:35;16.20;;;14.50;;
9304;SDS011;4690;52.422;13.486;2022-11-20T01:58:06;15.73;;;14.03;;
9304;SDS011;4690;52.422;13.486;2022-11-20T02:00:33;17.03;;;14.53;;
9304;SDS011;4690;52.422;13.486;2022-11-20T02:03:00;17.17;;;14.93;;
9304;SDS011;4690;52.422;13.486;2022-11-20T02:05:45;16.07;;;14.37;;
9304;SDS011;4690;52.422;13.486;2022-11-20T02:08:27;18.17;;;16.20;;
9304;SDS011;4690;52.422;13.486;2022-11-20T02:10:54;16.77;;;14.97;;
9304;SDS011;4690;52.422;13.486;2022-11-20T02:13:20;16.77;;;15.00;;
9304;SDS011;4690;52.422;13.486;2022-11-20T02:16:04;16.43;;;14.60;;
9304;SDS011;4690;52.422;13.486;2022-11-20T02:18:39;17.40;;;14.90;;
9304;SDS011;4690;52.422;13.486;2022-11-20T02:26:30;15.27;;;13.73;;
9304;SDS011;4690;52.422;13.486;2022-11-20T02:29:03;16.17;;;14.43;;
9304;SDS011;4690;52.422;13.486;2022-11-20T02:31:29;16.13;;;14.43;;
9304;SDS011;4690;52.422;13.486;2022-11-20T02:34:08;15.10;;;13.50;;
9304;SDS011;4690;52.422;13.486;2022-11-20T02:36:34;19.63;;;15.03;;
9304;SDS011;4690;52.422;13.486;2022-11-20T02:39:03;20.50;;;15.53;;
9304;SDS011;4690;52.422;13.486;2022-11-20T02:41:36;16.77;;;15.00;;
9304;SDS011;4690;52.422;13.486;2022-11-20T02:44:03;17.13;;;15.33;;
9304;SDS011;4690;52.422;13.486;2022-11-20T02:46:31;15.97;;;14.23;;
9304;SDS011;4690;52.422;13.486;2022-11-20T02:48:57;15.77;;;14.17;;
9304;SDS011;4690;52.422;13.486;2022-11-20T02:51:24;17.23;;;14.80;;
9304;SDS011;4690;52.422;13.486;2022-11-20T02:53:50;16.87;;;14.43;;
9304;SDS011;4690;52.422;13.486;2022-11-20T02:56:16;15.53;;;13.93;;
9304;SDS011;4690;52.422;13.486;2022-11-20T02:58:41;16.30;;;14.57;;
9304;SDS011;4690;52.422;13.486;2022-11-20T03:01:07;16.73;;;14.93;;
9304;SDS011;4690;52.422;13.486;2022-11-20T03:03:33;15.63;;;14.00;;
9304;SDS011;4690;52.422;13.486;2022-11-20T03:05:59;15.93;;;14.10;;
9304;SDS011;4690;52.422;13.486;2022-11-20T03:08:25;16.50;;;14.70;;
9304;SDS011;4690;52.422;13.486;2022-11-20T03:10:51;16.50;;;14.80;;
9304;SDS011;4690;52.422;13.486;2022-11-20T03:13:17;16.97;;;15.20;;
9304;SDS011;4690;52.422;13.486;2022-11-20T03:15:43;15.70;;;14.00;;
9304;SDS011;4690;52.422;13.486;2022-11-20T03:18:08;16.23;;;14.60;;
9304;SDS011;4690;52.422;13.486;2022-11-20T03:20:34;16.17;;;14.47;;
9304;SDS011;4690;52.422;13.486;2022-11-20T03:23:00;17.00;;;15.13;;
9304;SDS011;4690;52.422;13.486;2022-11-20T03:25:27;16.97;;;14.40;;
9304;SDS011;4690;52.422;13.486;2022-11-20T03:27:53;16.50;;;14.40;;
9304;SDS011;4690;52.422;13.486;2022-11-20T03:30:19;16.00;;;14.33;;
9304;SDS011;4690;52.422;13.486;2022-11-20T03:32:45;18.30;;;15.53;;
9304;SDS011;4690;52.422;13.486;2022-11-20T03:35:11;16.40;;;14.70;;
9304;SDS011;4690;52.422;13.486;2022-11-20T03:37:37;16.90;;;15.10;;
9304;SDS011;4690;52.422;13.486;2022-11-20T03:40:03;16.17;;;14.47;;
9304;SDS011;4690;52.422;13.486;2022-11-20T03:42:29;17.83;;;15.63;;
9304;SDS011;4690;52.422;13.486;2022-11-20T03:45:10;16.53;;;14.67;;
9304;SDS011;4690;52.422;13.486;2022-11-20T03:47:38;18.23;;;15.17;;
9304;SDS011;4690;52.422;13.486;2022-11-20T03:50:04;17.07;;;15.13;;
9304;SDS011;4690;52.422;13.486;2022-11-20T03:52:31;17.50;;;15.70;;
9304;SDS011;4690;52.422;13.486;2022-11-20T03:54:56;16.87;;;15.07;;
9304;SDS011;4690;52.422;13.486;2022-11-20T03:57:22;16.37;;;14.63;;
9304;SDS011;4690;52.422;13.486;2022-11-20T03:59:48;17.00;;;15.03;;
9304;SDS011;4690;52.422;13.486;2022-11-20T04:02:14;15.93;;;14.23;;
9304;SDS011;4690;52.422;13.486;2022-11-20T04:04:39;18.00;;;15.50;;
9304;SDS011;4690;52.422;13.486;2022-11-20T04:07:05;17.33;;;14.93;;
9304;SDS011;4690;52.422;13.486;2022-11-20T04:09:31;17.63;;;14.73;;
9304;SDS011;4690;52.422;13.486;2022-11-20T04:11:56;16.50;;;14.70;;
9304;SDS011;4690;52.422;13.486;2022-11-20T04:14:22;17.23;;;14.47;;
9304;SDS011;4690;52.422;13.486;2022-11-20T04:16:48;17.20;;;15.33;;
9304;SDS011;4690;52.422;13.486;2022-11-20T04:19:15;16.43;;;14.67;;
9304;SDS011;4690;52.422;13.486;2022-11-20T04:21:41;16.23;;;14.37;;
9304;SDS011;4690;52.422;13.486;2022-11-20T04:24:08;16.43;;;14.50;;
9304;SDS011;4690;52.422;13.486;2022-11-20T04:26:38;17.33;;;15.23;;
9304;SDS011;4690;52.422;13.486;2022-11-20T04:29:04;17.57;;;15.67;;
9304;SDS011;4690;52.422;13.486;2022-11-20T04:31:31;16.77;;;15.00;;
9304;SDS011;4690;52.422;13.486;2022-11-20T04:33:59;17.17;;;15.37;;
9304;SDS011;4690;52.422;13.486;2022-11-20T04:36:30;18.10;;;16.00;;
9304;SDS011;4690;52.422;13.486;2022-11-20T04:39:01;16.43;;;14.73;;
9304;SDS011;4690;52.422;13.486;2022-11-20T04:41:32;16.93;;;15.13;;
9304;SDS011;4690;52.422;13.486;2022-11-20T04:44:02;16.67;;;14.97;;
9304;SDS011;4690;52.422;13.486;2022-11-20T04:46:31;16.77;;;15.07;;
9304;SDS011;4690;52.422;13.486;2022-11-20T04:49:06;17.43;;;15.50;;
9304;SDS011;4690;52.422;13.486;2022-11-20T04:51:33;17.73;;;15.13;;
9304;SDS011;4690;52.422;13.486;2022-11-20T04:53:59;18.10;;;15.40;;
9304;SDS011;4690;52.422;13.486;2022-11-20T04:56:25;18.70;;;15.80;;
9304;SDS011;4690;52.422;13.486;2022-11-20T04:58:50;17.10;;;15.30;;
9304;SDS011;4690;52.422;13.486;2022-11-20T05:01:20;17.43;;;15.53;;
9304;SDS011;4690;52.422;13.486;2022-11-20T05:03:48;18.40;;;15.10;;
9304;SDS011;4690;52.422;13.486;2022-11-20T05:06:15;16.70;;;14.80;;
9304;SDS011;4690;52.422;13.486;2022-11-20T05:08:43;16.67;;;14.97;;
9304;SDS011;4690;52.422;13.486;2022-11-20T05:11:10;17.87;;;15.97;;
9304;SDS011;4690;52.422;13.486;2022-11-20T05:13:40;18.10;;;15.43;;
9304;SDS011;4690;52.422;13.486;2022-11-20T05:16:07;18.20;;;15.50;;
9304;SDS011;4690;52.422;13.486;2022-11-20T05:18:36;17.53;;;15.10;;
9304;SDS011;4690;52.422;13.486;2022-11-20T05:21:03;18.33;;;15.67;;
9304;SDS011;4690;52.422;13.486;2022-11-20T05:23:29;17.50;;;15.60;;
9304;SDS011;4690;52.422;13.486;2022-11-20T05:25:57;15.93;;;14.23;;
9304;SDS011;4690;52.422;13.486;2022-11-20T05:28:25;16.97;;;15.03;;
9304;SDS011;4690;52.422;13.486;2022-11-20T05:30:53;17.10;;;14.77;;
9304;SDS011;4690;52.422;13.486;2022-11-20T05:33:19;17.87;;;15.20;;
9304;SDS011;4690;52.422;13.486;2022-11-20T05:35:45;16.33;;;14.63;;
9304;SDS011;4690;52.422;13.486;2022-11-20T05:38:11;18.37;;;16.37;;
9304;SDS011;4690;52.422;13.486;2022-11-20T05:40:37;17.90;;;16.00;;
9304;SDS011;4690;52.422;13.486;2022-11-20T05:43:03;18.13;;;15.73;;
9304;SDS011;4690;52.422;13.486;2022-11-20T05:45:28;18.37;;;16.30;;
9304;SDS011;4690;52.422;13.486;2022-11-20T05:47:57;23.50;;;16.90;;
9304;SDS011;4690;52.422;13.486;2022-11-20T05:50:25;17.30;;;15.43;;
9304;SDS011;4690;52.422;13.486;2022-11-20T05:52:52;18.83;;;15.90;;
9304;SDS011;4690;52.422;13.486;2022-11-20T05:55:18;17.87;;;15.63;;
9304;SDS011;4690;52.422;13.486;2022-11-20T05:57:44;16.60;;;14.90;;
9304;SDS011;4690;52.422;13.486;2022-11-20T06:00:10;17.80;;;15.67;;
9304;SDS011;4690;52.422;13.486;2022-11-20T06:02:36;18.43;;;15.40;;
9304;SDS011;4690;52.422;13.486;2022-11-20T06:05:02;18.20;;;15.20;;
9304;SDS011;4690;52.422;13.486;2022-11-20T06:07:28;17.10;;;15.30;;
9304;SDS011;4690;52.422;13.486;2022-11-20T06:09:53;19.23;;;15.13;;
9304;SDS011;4690;52.422;13.486;2022-11-20T06:12:19;19.73;;;15.83;;
9304;SDS011;4690;52.422;13.486;2022-11-20T06:14:45;17.03;;;15.23;;
9304;SDS011;4690;52.422;13.486;2022-11-20T06:17:11;17.37;;;15.23;;
9304;SDS011;4690;52.422;13.486;2022-11-20T06:19:36;17.90;;;15.97;;
9304;SDS011;4690;52.422;13.486;2022-11-20T06:22:02;17.57;;;14.90;;
9304;SDS011;4690;52.422;13.486;2022-11-20T06:24:28;17.77;;;15.00;;
9304;SDS011;4690;52.422;13.486;2022-11-20T06:26:53;18.03;;;15.50;;
9304;SDS011;4690;52.422;13.486;2022-11-20T06:29:19;17.87;;;15.63;;
9304;SDS011;4690;52.422;13.486;2022-11-20T06:31:45;18.20;;;16.20;;
9304;SDS011;4690;52.422;13.486;2022-11-20T06:34:11;18.80;;;16.07;;
9304;SDS011;4690;52.422;13.486;2022-11-20T06:36:36;17.50;;;15.60;;
9304;SDS011;4690;52.422;13.486;2022-11-20T06:39:02;17.53;;;15.53;;
9304;SDS011;4690;52.422;13.486;2022-11-20T06:41:28;17.53;;;15.13;;
9304;SDS011;4690;52.422;13.486;2022-11-20T06:43:54;18.83;;;15.80;;
9304;SDS011;4690;52.422;13.486;2022-11-20T06:46:20;17.23;;;15.33;;
9304;SDS011;4690;52.422;13.486;2022-11-20T06:48:46;17.37;;;15.57;;
9304;SDS011;4690;52.422;13.486;2022-11-20T06:51:13;17.53;;;15.70;;
9304;SDS011;4690;52.422;13.486;2022-11-20T06:53:39;16.60;;;14.90;;
9304;SDS011;4690;52.422;13.486;2022-11-20T06:56:05;17.57;;;15.77;;
9304;SDS011;4690;52.422;13.486;2022-11-20T06:58:33;17.60;;;14.93;;
9304;SDS011;4690;52.422;13.486;2022-11-20T07:01:00;18.17;;;15.90;;
9304;SDS011;4690;52.422;13.486;2022-11-20T07:03:30;17.63;;;15.13;;
9304;SDS011;4690;52.422;13.486;2022-11-20T07:05:56;16.77;;;14.87;;
9304;SDS011;4690;52.422;13.486;2022-11-20T07:08:25;18.13;;;15.83;;
9304;SDS011;4690;52.422;13.486;2022-11-20T07:10:51;19.10;;;15.57;;
9304;SDS011;4690;52.422;13.486;2022-11-20T07:13:17;18.47;;;15.97;;
9304;SDS011;4690;52.422;13.486;2022-11-20T07:15:42;20.90;;;16.73;;
9304;SDS011;4690;52.422;13.486;2022-11-20T07:18:08;20.10;;;16.60;;
9304;SDS011;4690;52.422;13.486;2022-11-20T07:20:34;17.83;;;15.93;;
9304;SDS011;4690;52.422;13.486;2022-11-20T07:23:00;18.67;;;16.33;;
9304;SDS011;4690;52.422;13.486;2022-11-20T07:25:27;20.23;;;16.43;;
9304;SDS011;4690;52.422;13.486;2022-11-20T07:27:59;17.93;;;15.83;;
9304;SDS011;4690;52.422;13.486;2022-11-20T07:30:29;18.90;;;16.03;;
9304;SDS011;4690;52.422;13.486;2022-11-20T07:32:55;18.23;;;16.07;;
9304;SDS011;4690;52.422;13.486;2022-11-20T07:35:22;20.50;;;17.33;;
9304;SDS011;4690;52.422;13.486;2022-11-20T07:37:49;18.13;;;16.23;;
9304;SDS011;4690;52.422;13.486;2022-11-20T07:40:16;19.20;;;16.97;;
9304;SDS011;4690;52.422;13.486;2022-11-20T07:42:49;19.43;;;16.63;;
9304;SDS011;4690;52.422;13.486;2022-11-20T07:45:19;19.30;;;17.17;;
9304;SDS011;4690;52.422;13.486;2022-11-20T07:47:48;19.27;;;16.50;;
9304;SDS011;4690;52.422;13.486;2022-11-20T07:50:14;20.13;;;17.53;;
9304;SDS011;4690;52.422;13.486;2022-11-20T07:52:41;21.23;;;18.37;;
9304;SDS011;4690;52.422;13.486;2022-11-20T07:55:07;21.90;;;18.10;;
9304;SDS011;4690;52.422;13.486;2022-11-20T07:57:35;20.67;;;17.33;;
9304;SDS011;4690;52.422;13.486;2022-11-20T08:00:01;19.60;;;16.67;;
9304;SDS011;4690;52.422;13.486;2022-11-20T08:02:29;21.00;;;17.43;;
9304;SDS011;4690;52.422;13.486;2022-11-20T08:04:55;23.43;;;18.47;;
9304;SDS011;4690;52.422;13.486;2022-11-20T08:07:20;21.47;;;18.03;;
9304;SDS011;4690;52.422;13.486;2022-11-20T08:09:46;19.27;;;17.20;;
9304;SDS011;4690;52.422;13.486;2022-11-20T08:12:19;19.40;;;17.30;;
9304;SDS011;4690;52.422;13.486;2022-11-20T08:15:05;21.03;;;18.57;;
9304;SDS011;4690;52.422;13.486;2022-11-20T08:17:31;21.27;;;18.70;;
9304;SDS011;4690;52.422;13.486;2022-11-20T08:19:57;21.10;;;18.60;;
9304;SDS011;4690;52.422;13.486;2022-11-20T08:22:23;19.67;;;17.50;;
9304;SDS011;4690;52.422;13.486;2022-11-20T08:24:50;20.93;;;18.70;;
9304;SDS011;4690;52.422;13.486;2022-11-20T08:27:15;22.00;;;19.00;;
9304;SDS011;4690;52.422;13.486;2022-11-20T08:29:41;21.13;;;18.33;;
9304;SDS011;4690;52.422;13.486;2022-11-20T08:32:07;20.70;;;18.00;;
9304;SDS011;4690;52.422;13.486;2022-11-20T08:34:33;22.00;;;17.97;;
9304;SDS011;4690;52.422;13.486;2022-11-20T08:36:58;17.47;;;15.57;;
9304;SDS011;4690;52.422;13.486;2022-11-20T08:39:26;20.53;;;16.60;;
9304;SDS011;4690;52.422;13.486;2022-11-20T08:41:52;19.17;;;17.17;;
9304;SDS011;4690;52.422;13.486;2022-11-20T08:44:17;18.83;;;16.77;;
9304;SDS011;4690;52.422;13.486;2022-11-20T08:46:43;19.10;;;15.93;;
9304;SDS011;4690;52.422;13.486;2022-11-20T08:49:11;18.50;;;15.77;;
9304;SDS011;4690;52.422;13.486;2022-11-20T08:51:38;17.57;;;15.67;;
9304;SDS011;4690;52.422;13.486;2022-11-20T08:54:05;17.27;;;15.10;;
9304;SDS011;4690;52.422;13.486;2022-11-20T08:56:31;17.03;;;15.33;;
9304;SDS011;4690;52.422;13.486;2022-11-20T08:58:59;16.57;;;14.90;;
9304;SDS011;4690;52.422;13.486;2022-11-20T09:01:25;17.67;;;15.57;;
9304;SDS011;4690;52.422;13.486;2022-11-20T09:03:54;17.57;;;14.93;;
9304;SDS011;4690;52.422;13.486;2022-11-20T09:06:21;18.63;;;15.23;;
9304;SDS011;4690;52.422;13.486;2022-11-20T09:08:51;16.60;;;14.83;;
9304;SDS011;4690;52.422;13.486;2022-11-20T09:11:21;16.90;;;15.13;;
9304;SDS011;4690;52.422;13.486;2022-11-20T09:13:47;20.03;;;15.90;;
9304;SDS011;4690;52.422;13.486;2022-11-20T09:16:14;18.30;;;15.63;;
9304;SDS011;4690;52.422;13.486;2022-11-20T09:18:39;18.20;;;15.73;;
9304;SDS011;4690;52.422;13.486;2022-11-20T09:21:06;18.73;;;16.17;;
9304;SDS011;4690;52.422;13.486;2022-11-20T09:23:38;17.57;;;15.67;;
9304;SDS011;4690;52.422;13.486;2022-11-20T09:26:05;17.87;;;15.63;;
9304;SDS011;4690;52.422;13.486;2022-11-20T09:28:39;18.67;;;16.23;;
9304;SDS011;4690;52.422;13.486;2022-11-20T09:31:06;19.70;;;17.00;;
9304;SDS011;4690;52.422;13.486;2022-11-20T09:33:47;17.83;;;15.77;;
9304;SDS011;4690;52.422;13.486;2022-11-20T09:36:13;19.53;;;16.67;;
9304;SDS011;4690;52.422;13.486;2022-11-20T09:38:39;17.73;;;15.90;;
9304;SDS011;4690;52.422;13.486;2022-11-20T09:41:05;19.13;;;17.13;;
9304;SDS011;4690;52.422;13.486;2022-11-20T09:55:12;19.00;;;17.00;;
9304;SDS011;4690;52.422;13.486;2022-11-20T09:57:40;18.67;;;16.67;;
9304;SDS011;4690;52.422;13.486;2022-11-20T10:00:12;19.73;;;16.83;;
9304;SDS011;4690;52.422;13.486;2022-11-20T10:05:31;20.20;;;17.53;;
9304;SDS011;4690;52.422;13.486;2022-11-20T10:08:16;19.60;;;17.50;;
9304;SDS011;4690;52.422;13.486;2022-11-20T10:10:51;18.77;;;16.77;;
9304;SDS011;4690;52.422;13.486;2022-11-20T10:13:50;18.83;;;16.83;;
9304;SDS011;4690;52.422;13.486;2022-11-20T10:24:58;22.50;;;19.60;;
9304;SDS011;4690;52.422;13.486;2022-11-20T10:30:29;22.37;;;19.97;;
9304;SDS011;4690;52.422;13.486;2022-11-20T10:33:21;22.20;;;19.10;;
9304;SDS011;4690;52.422;13.486;2022-11-20T10:35:53;21.20;;;18.73;;
9304;SDS011;4690;52.422;13.486;2022-11-20T10:38:40;19.70;;;17.63;;
9304;SDS011;4690;52.422;13.486;2022-11-20T10:41:23;19.13;;;17.00;;
9304;SDS011;4690;52.422;13.486;2022-11-20T10:47:04;21.23;;;18.07;;
9304;SDS011;4690;52.422;13.486;2022-11-20T10:49:36;18.37;;;16.43;;
9304;SDS011;4690;52.422;13.486;2022-11-20T11:00:35;19.23;;;17.03;;
9304;SDS011;4690;52.422;13.486;2022-11-20T11:03:00;19.87;;;17.47;;
9304;SDS011;4690;52.422;13.486;2022-11-20T11:08:03;18.73;;;16.70;;
9304;SDS011;4690;52.422;13.486;2022-11-20T11:13:22;21.43;;;18.17;;
9304;SDS011;4690;52.422;13.486;2022-11-20T11:15:53;20.00;;;17.90;;
9304;SDS011;4690;52.422;13.486;2022-11-20T11:18:30;19.77;;;17.80;;
9304;SDS011;4690;52.422;13.486;2022-11-20T11:21:00;19.60;;;17.37;;
9304;SDS011;4690;52.422;13.486;2022-11-20T11:23:31;22.27;;;17.40;;
9304;SDS011;4690;52.422;13.486;2022-11-20T11:26:01;20.33;;;17.93;;
9304;SDS011;4690;52.422;13.486;2022-11-20T11:28:30;21.10;;;17.27;;
9304;SDS011;4690;52.422;13.486;2022-11-20T11:30:57;19.63;;;16.87;;
9304;SDS011;4690;52.422;13.486;2022-11-20T11:33:27;19.77;;;17.67;;
9304;SDS011;4690;52.422;13.486;2022-11-20T11:36:16;19.97;;;17.73;;
9304;SDS011;4690;52.422;13.486;2022-11-20T11:38:50;21.03;;;18.87;;
9304;SDS011;4690;52.422;13.486;2022-11-20T11:41:20;20.97;;;18.60;;
9304;SDS011;4690;52.422;13.486;2022-11-20T11:43:57;20.23;;;17.57;;
9304;SDS011;4690;52.422;13.486;2022-11-20T11:46:58;18.93;;;16.90;;
9304;SDS011;4690;52.422;13.486;2022-11-20T11:49:24;20.37;;;18.23;;
9304;SDS011;4690;52.422;13.486;2022-11-20T11:52:10;22.93;;;18.80;;
9304;SDS011;4690;52.422;13.486;2022-11-20T12:00:17;20.57;;;17.97;;
9304;SDS011;4690;52.422;13.486;2022-11-20T12:08:38;20.37;;;17.10;;
9304;SDS011;4690;52.422;13.486;2022-11-20T12:11:43;18.90;;;16.67;;
9304;SDS011;4690;52.422;13.486;2022-11-20T12:17:11;19.70;;;16.50;;
9304;SDS011;4690;52.422;13.486;2022-11-20T12:19:39;19.07;;;16.83;;
9304;SDS011;4690;52.422;13.486;2022-11-20T12:34:19;20.50;;;17.90;;
9304;SDS011;4690;52.422;13.486;2022-11-20T12:37:08;22.07;;;18.03;;
9304;SDS011;4690;52.422;13.486;2022-11-20T12:39:54;23.37;;;19.07;;
9304;SDS011;4690;52.422;13.486;2022-11-20T12:54:42;23.33;;;18.80;;
9304;SDS011;4690;52.422;13.486;2022-11-20T13:06:46;20.07;;;16.53;;
9304;SDS011;4690;52.422;13.486;2022-11-20T13:09:14;16.93;;;14.27;;
9304;SDS011;4690;52.422;13.486;2022-11-20T13:12:22;17.03;;;14.93;;
9304;SDS011;4690;52.422;13.486;2022-11-20T13:18:03;15.70;;;12.50;;
9304;SDS011;4690;52.422;13.486;2022-11-20T13:20:33;17.73;;;13.80;;
9304;SDS011;4690;52.422;13.486;2022-11-20T13:23:05;14.33;;;11.50;;
9304;SDS011;4690;52.422;13.486;2022-11-20T13:28:25;15.00;;;12.00;;
9304;SDS011;4690;52.422;13.486;2022-11-20T13:30:55;13.27;;;11.87;;
9304;SDS011;4690;52.422;13.486;2022-11-20T13:33:33;17.07;;;12.63;;
9304;SDS011;4690;52.422;13.486;2022-11-20T13:36:05;16.20;;;12.30;;
9304;SDS011;4690;52.422;13.486;2022-11-20T13:38:49;13.83;;;11.30;;
9304;SDS011;4690;52.422;13.486;2022-11-20T13:41:27;13.00;;;11.47;;
9304;SDS011;4690;52.422;13.486;2022-11-20T13:46:37;12.57;;;11.20;;
9304;SDS011;4690;52.422;13.486;2022-11-20T13:49:20;13.47;;;11.43;;
9304;SDS011;4690;52.422;13.486;2022-11-20T13:52:04;15.47;;;12.30;;
9304;SDS011;4690;52.422;13.486;2022-11-20T14:00:25;17.40;;;12.07;;
9304;SDS011;4690;52.422;13.486;2022-11-20T14:03:02;14.97;;;12.40;;
9304;SDS011;4690;52.422;13.486;2022-11-20T14:05:49;13.80;;;12.23;;
9304;SDS011;4690;52.422;13.486;2022-11-20T14:08:26;17.27;;;12.97;;
9304;SDS011;4690;52.422;13.486;2022-11-20T14:11:05;16.83;;;12.77;;
9304;SDS011;4690;52.422;13.486;2022-11-20T14:14:13;17.23;;;13.70;;
9304;SDS011;4690;52.422;13.486;2022-11-20T14:16:44;15.17;;;13.03;;
9304;SDS011;4690;52.422;13.486;2022-11-20T14:21:51;18.13;;;14.67;;
9304;SDS011;4690;52.422;13.486;2022-11-20T14:24:31;24.20;;;15.73;;
9304;SDS011;4690;52.422;13.486;2022-11-20T14:26:57;17.77;;;15.00;;
9304;SDS011;4690;52.422;13.486;2022-11-20T14:29:30;19.13;;;14.07;;
9304;SDS011;4690;52.422;13.486;2022-11-20T14:32:01;17.00;;;14.07;;
9304;SDS011;4690;52.422;13.486;2022-11-20T14:34:30;15.90;;;13.40;;
9304;SDS011;4690;52.422;13.486;2022-11-20T14:37:04;17.03;;;13.80;;
9304;SDS011;4690;52.422;13.486;2022-11-20T14:39:36;18.00;;;13.60;;
9304;SDS011;4690;52.422;13.486;2022-11-20T14:42:16;17.33;;;13.73;;
9304;SDS011;4690;52.422;13.486;2022-11-20T14:44:48;15.80;;;13.27;;
9304;SDS011;4690;52.422;13.486;2022-11-20T14:47:18;20.43;;;15.50;;
9304;SDS011;4690;52.422;13.486;2022-11-20T14:49:51;17.20;;;15.07;;
9304;SDS011;4690;52.422;13.486;2022-11-20T14:52:21;19.17;;;16.37;;
9304;SDS011;4690;52.422;13.486;2022-11-20T14:54:53;20.03;;;15.03;;
9304;SDS011;4690;52.422;13.486;2022-11-20T14:57:31;22.60;;;16.90;;
9304;SDS011;4690;52.422;13.486;2022-11-20T15:00:20;19.73;;;16.40;;
9304;SDS011;4690;52.422;13.486;2022-11-20T15:02:47;19.87;;;15.53;;
9304;SDS011;4690;52.422;13.486;2022-11-20T15:05:16;21.70;;;16.27;;
9304;SDS011;4690;52.422;13.486;2022-11-20T15:07:50;22.33;;;18.00;;
9304;SDS011;4690;52.422;13.486;2022-11-20T15:10:32;27.57;;;20.07;;
9304;SDS011;4690;52.422;13.486;2022-11-20T15:13:00;42.40;;;31.73;;
9304;SDS011;4690;52.422;13.486;2022-11-20T15:15:32;29.03;;;18.83;;
9304;SDS011;4690;52.422;13.486;2022-11-20T15:18:04;22.27;;;17.00;;
9304;SDS011;4690;52.422;13.486;2022-11-20T15:20:31;22.70;;;18.53;;
9304;SDS011;4690;52.422;13.486;2022-11-20T15:22:58;18.90;;;16.53;;
9304;SDS011;4690;52.422;13.486;2022-11-20T15:25:24;24.30;;;18.30;;
9304;SDS011;4690;52.422;13.486;2022-11-20T15:27:59;21.43;;;18.47;;
9304;SDS011;4690;52.422;13.486;2022-11-20T15:30:25;25.00;;;18.93;;
9304;SDS011;4690;52.422;13.486;2022-11-20T15:32:51;30.53;;;18.83;;
9304;SDS011;4690;52.422;13.486;2022-11-20T15:35:16;25.50;;;20.27;;
9304;SDS011;4690;52.422;13.486;2022-11-20T15:37:42;24.10;;;18.33;;
9304;SDS011;4690;52.422;13.486;2022-11-20T15:40:08;24.83;;;17.90;;
9304;SDS011;4690;52.422;13.486;2022-11-20T15:42:35;20.53;;;17.43;;
9304;SDS011;4690;52.422;13.486;2022-11-20T15:45:01;27.37;;;20.30;;
9304;SDS011;4690;52.422;13.486;2022-11-20T15:47:31;29.47;;;21.13;;
9304;SDS011;4690;52.422;13.486;2022-11-20T15:50:00;25.97;;;20.60;;
9304;SDS011;4690;52.422;13.486;2022-11-20T15:52:26;22.77;;;18.10;;
9304;SDS011;4690;52.422;13.486;2022-11-20T15:54:52;19.27;;;16.60;;
9304;SDS011;4690;52.422;13.486;2022-11-20T15:57:18;21.90;;;17.47;;
9304;SDS011;4690;52.422;13.486;2022-11-20T15:59:44;22.43;;;16.53;;
9304;SDS011;4690;52.422;13.486;2022-11-20T16:02:13;20.67;;;16.73;;
9304;SDS011;4690;52.422;13.486;2022-11-20T16:04:40;24.67;;;18.47;;
9304;SDS011;4690;52.422;13.486;2022-11-20T16:07:09;29.57;;;20.37;;
9304;SDS011;4690;52.422;13.486;2022-11-20T16:09:35;22.43;;;18.27;;
9304;SDS011;4690;52.422;13.486;2022-11-20T16:12:00;28.87;;;18.03;;
9304;SDS011;4690;52.422;13.486;2022-11-20T16:14:26;22.67;;;16.67;;
9304;SDS011;4690;52.422;13.486;2022-11-20T16:17:11;21.60;;;16.57;;
9304;SDS011;4690;52.422;13.486;2022-11-20T16:19:38;19.80;;;16.97;;
9304;SDS011;4690;52.422;13.486;2022-11-20T16:22:04;21.30;;;16.97;;
9304;SDS011;4690;52.422;13.486;2022-11-20T16:24:29;21.77;;;17.10;;
9304;SDS011;4690;52.422;13.486;2022-11-20T16:26:56;20.93;;;16.13;;
9304;SDS011;4690;52.422;13.486;2022-11-20T16:29:21;22.23;;;17.37;;
9304;SDS011;4690;52.422;13.486;2022-11-20T16:31:48;18.13;;;15.73;;
9304;SDS011;4690;52.422;13.486;2022-11-20T16:34:15;18.63;;;16.60;;
9304;SDS011;4690;52.422;13.486;2022-11-20T16:36:42;17.67;;;14.70;;
9304;SDS011;4690;52.422;13.486;2022-11-20T16:39:10;19.23;;;15.10;;
9304;SDS011;4690;52.422;13.486;2022-11-20T16:41:37;23.57;;;17.20;;
9304;SDS011;4690;52.422;13.486;2022-11-20T16:44:06;21.93;;;17.20;;
9304;SDS011;4690;52.422;13.486;2022-11-20T16:46:34;17.20;;;15.33;;
9304;SDS011;4690;52.422;13.486;2022-11-20T16:49:04;19.57;;;15.17;;
9304;SDS011;4690;52.422;13.486;2022-11-20T16:51:35;18.33;;;15.33;;
9304;SDS011;4690;52.422;13.486;2022-11-20T16:54:02;17.63;;;14.80;;